createdAt,value
2019-03-27T09:58:59.752Z,12.30
2019-03-27T10:01:26.524Z,16.25
2019-03-27T10:03:53.441Z,14.30
2019-03-27T10:06:20.231Z,13.30
2019-03-27T10:08:47.003Z,11.83
2019-03-27T10:11:13.900Z,11.55
2019-03-27T10:13:40.723Z,12.07
2019-03-27T10:25:24.021Z,9.75
2019-03-27T10:27:50.873Z,14.25
2019-03-27T10:30:18.427Z,15.35
2019-03-27T10:32:45.301Z,11.55
2019-03-27T10:35:12.222Z,9.90
2019-03-27T10:37:38.988Z,12.80
2019-03-27T10:40:05.826Z,9.83
2019-03-27T10:42:32.706Z,9.90
2019-03-27T10:44:59.674Z,12.18
2019-03-27T10:47:26.791Z,12.00
2019-03-27T10:49:53.481Z,11.48
2019-03-27T10:52:20.243Z,8.88
2019-03-27T10:54:47.025Z,7.67
2019-03-27T10:57:13.875Z,12.50
2019-03-27T10:59:40.672Z,9.43
2019-03-27T11:02:07.634Z,11.28
2019-03-27T11:04:34.598Z,10.40
2019-03-27T11:07:01.942Z,8.60
2019-03-27T11:09:29.091Z,12.28
2019-03-27T11:11:55.872Z,12.88
2019-03-27T11:14:22.597Z,9.85
2019-03-27T11:16:49.375Z,13.08
2019-03-27T11:19:16.290Z,9.10
2019-03-27T11:21:43.201Z,8.33
2019-03-27T11:24:10.563Z,8.23
2019-03-27T11:26:37.377Z,7.42
2019-03-27T11:29:04.233Z,9.45
2019-03-27T11:31:31.339Z,9.03
2019-03-27T11:33:58.132Z,7.78
2019-03-27T11:36:26.248Z,11.00
2019-03-27T11:38:52.989Z,14.15
2019-03-27T11:41:20.282Z,13.22
2019-03-27T11:43:54.611Z,10.28
2019-03-27T11:46:15.880Z,8.93
2019-03-27T11:48:42.732Z,11.65
2019-03-27T11:51:09.559Z,12.53
2019-03-27T11:53:36.503Z,10.75
2019-03-27T11:56:03.613Z,10.78
2019-03-27T11:58:30.547Z,7.42
2019-03-27T12:00:57.369Z,12.43
2019-03-27T12:03:24.185Z,9.50
2019-03-27T12:05:51.123Z,12.70
2019-03-27T12:08:17.911Z,9.63
2019-03-27T12:10:44.782Z,13.18
2019-03-27T12:13:11.554Z,11.25
2019-03-27T12:15:39.299Z,12.93
2019-03-27T12:18:06.971Z,9.83
2019-03-27T12:20:34.399Z,9.40
2019-03-27T12:23:01.143Z,12.10
2019-03-27T12:25:27.927Z,10.03
2019-03-27T12:27:54.763Z,11.25
2019-03-27T12:30:21.685Z,13.15
2019-03-27T12:32:48.455Z,16.05
2019-03-27T12:35:15.197Z,10.32
2019-03-27T12:37:41.945Z,10.40
2019-03-27T12:40:11.915Z,10.43
2019-03-27T12:42:37.402Z,7.90
2019-03-27T12:45:05.361Z,13.05
2019-03-27T12:47:36.942Z,10.70
2019-03-27T12:50:05.653Z,12.50
2019-03-27T12:52:32.439Z,10.30
2019-03-27T12:54:59.159Z,12.78
2019-03-27T12:57:25.877Z,11.50
2019-03-27T12:59:52.637Z,9.50
2019-03-27T13:02:19.339Z,10.40
2019-03-27T13:04:46.211Z,13.00
2019-03-27T13:07:13.189Z,13.50
2019-03-27T13:09:40.019Z,10.68
2019-03-27T13:12:06.781Z,7.70
2019-03-27T13:14:34.112Z,9.93
2019-03-27T13:17:00.933Z,9.45
2019-03-27T13:19:28.207Z,11.00
2019-03-27T13:21:55.047Z,10.72
2019-03-27T13:24:21.755Z,11.78
2019-03-27T13:26:48.665Z,12.23
2019-03-27T13:29:15.425Z,10.08
2019-03-27T13:31:42.201Z,10.10
2019-03-27T13:34:09.101Z,16.62
2019-03-27T13:36:37.279Z,13.88
2019-03-27T13:39:06.420Z,10.45
2019-03-27T13:41:33.331Z,14.47
2019-03-27T13:44:00.199Z,12.10
2019-03-27T13:46:26.961Z,9.15
2019-03-27T13:48:53.945Z,10.40
2019-03-27T13:51:20.939Z,21.75
2019-03-27T13:53:47.821Z,12.07
2019-03-27T13:56:14.714Z,10.63
2019-03-27T13:58:41.518Z,11.28
2019-03-27T14:01:09.059Z,12.88
2019-03-27T14:03:36.618Z,9.98
2019-03-27T14:06:03.390Z,10.00
2019-03-27T14:08:30.512Z,11.28
2019-03-27T14:10:57.400Z,9.78
2019-03-27T14:13:24.154Z,11.30
2019-03-27T14:15:50.957Z,9.35
2019-03-27T14:18:17.868Z,9.03
2019-03-27T14:20:44.717Z,9.03
2019-03-27T14:23:11.499Z,7.10
2019-03-27T14:25:38.334Z,10.75
2019-03-27T14:28:05.472Z,8.50
2019-03-27T14:30:49.187Z,9.45
2019-03-27T14:33:16.137Z,8.70
2019-03-27T14:35:43.010Z,7.17
2019-03-27T14:38:09.814Z,7.75
2019-03-27T14:40:36.590Z,7.33
2019-03-27T14:43:03.600Z,7.83
2019-03-27T14:45:30.546Z,10.68
2019-03-27T14:47:57.406Z,10.72
2019-03-27T14:50:24.353Z,8.93
2019-03-27T14:52:51.133Z,9.78
2019-03-27T14:55:17.921Z,11.08
2019-03-27T14:57:44.669Z,8.55
2019-03-27T15:00:11.666Z,7.75
2019-03-27T15:02:38.780Z,8.38
2019-03-27T15:05:06.361Z,10.88
2019-03-27T15:07:33.203Z,8.58
2019-03-27T15:10:00.151Z,9.98
2019-03-27T15:12:27.430Z,11.75
2019-03-27T15:14:54.147Z,13.55
2019-03-27T15:17:20.991Z,9.90
2019-03-27T15:19:47.980Z,17.25
2019-03-27T15:22:22.234Z,11.30
2019-03-27T15:24:43.405Z,12.73
2019-03-27T15:27:10.254Z,10.82
2019-03-27T15:29:37.075Z,11.78
2019-03-27T15:32:03.828Z,11.03
2019-03-27T15:34:30.736Z,8.90
2019-03-27T15:36:57.635Z,10.30
2019-03-27T15:39:24.825Z,7.75
2019-03-27T15:41:51.729Z,9.75
2019-03-27T15:44:18.484Z,9.60
2019-03-27T15:46:45.365Z,10.90
2019-03-27T15:49:12.152Z,13.83
2019-03-27T15:51:39.082Z,17.77
2019-03-27T15:54:05.860Z,17.25
2019-03-27T15:56:32.763Z,9.03
2019-03-27T15:58:59.503Z,7.55
2019-03-27T16:01:26.286Z,13.18
2019-03-27T16:03:53.283Z,10.30
2019-03-27T16:06:20.115Z,15.18
2019-03-27T16:08:46.934Z,11.57
2019-03-27T16:11:13.863Z,10.40
2019-03-27T16:13:40.636Z,11.60
2019-03-27T16:16:07.580Z,10.43
2019-03-27T16:18:34.482Z,13.60
2019-03-27T16:21:01.346Z,11.25
2019-03-27T16:23:32.344Z,11.68
2019-03-27T16:25:59.203Z,8.40
2019-03-27T16:28:25.935Z,8.93
2019-03-27T16:30:52.737Z,11.45
2019-03-27T16:33:19.544Z,10.88
2019-03-27T16:35:46.465Z,11.78
2019-03-27T16:38:13.340Z,10.23
2019-03-27T16:40:45.873Z,14.28
2019-03-27T16:43:12.935Z,11.70
2019-03-27T16:45:39.743Z,10.48
2019-03-27T16:48:06.720Z,13.15
2019-03-27T16:50:33.580Z,16.37
2019-03-27T16:53:03.715Z,14.78
2019-03-27T16:55:29.140Z,14.30
2019-03-27T16:57:55.926Z,12.33
2019-03-27T17:00:22.752Z,13.25
2019-03-27T17:02:49.623Z,15.50
2019-03-27T17:05:16.536Z,19.10
2019-03-27T17:07:43.342Z,15.72
2019-03-27T17:10:10.117Z,16.05
2019-03-27T17:12:36.970Z,16.97
2019-03-27T17:15:04.951Z,14.95
2019-03-27T17:17:31.817Z,13.95
2019-03-27T17:20:00.792Z,18.17
2019-03-27T17:22:27.836Z,23.10
2019-03-27T17:24:56.025Z,15.75
2019-03-27T17:27:23.301Z,19.30
2019-03-27T17:29:50.044Z,18.45
2019-03-27T17:32:16.776Z,21.70
2019-03-27T17:34:43.556Z,19.27
2019-03-27T17:37:10.265Z,18.77
2019-03-27T17:39:37.092Z,21.82
2019-03-27T17:42:03.846Z,23.22
2019-03-27T17:44:30.636Z,23.85
2019-03-27T17:46:57.379Z,27.85
2019-03-27T17:49:24.283Z,24.47
2019-03-27T17:51:52.213Z,30.12
2019-03-27T17:54:20.753Z,30.95
2019-03-27T17:56:47.906Z,22.65
2019-03-27T17:59:14.742Z,26.62
2019-03-27T18:01:41.514Z,27.75
2019-03-27T18:04:08.303Z,29.48
2019-03-27T18:06:35.188Z,28.02
2019-03-27T18:09:02.055Z,32.33
2019-03-27T18:11:28.939Z,32.67
2019-03-27T18:13:55.824Z,31.12
2019-03-27T18:16:22.686Z,30.80
2019-03-27T18:18:49.540Z,30.77
2019-03-27T18:21:16.526Z,35.05
2019-03-27T18:23:46.255Z,33.33
2019-03-27T18:26:12.287Z,35.92
2019-03-27T18:28:38.985Z,39.90
2019-03-27T18:31:05.747Z,38.73
2019-03-27T18:33:34.162Z,44.65
2019-03-27T18:36:01.196Z,38.08
2019-03-27T18:38:28.089Z,46.02
2019-03-27T18:40:55.052Z,44.42
2019-03-27T18:43:21.876Z,49.70
2019-03-27T18:45:48.646Z,53.35
2019-03-27T18:48:15.460Z,56.00
2019-03-27T18:50:45.146Z,57.93
2019-03-27T18:53:11.896Z,56.77
2019-03-27T18:55:38.686Z,57.80
2019-03-27T18:58:05.431Z,55.95
2019-03-27T19:00:32.378Z,58.35
2019-03-27T19:02:59.189Z,64.75
2019-03-27T19:05:26.110Z,66.30
2019-03-27T19:07:52.866Z,63.80
2019-03-27T19:10:19.680Z,67.42
2019-03-27T19:12:49.176Z,65.15
2019-03-27T19:15:16.215Z,71.70
2019-03-27T19:17:43.230Z,59.60
2019-03-27T19:20:09.995Z,63.05
2019-03-27T19:22:36.875Z,62.43
2019-03-27T19:25:05.890Z,62.62
2019-03-27T19:27:32.670Z,56.13
2019-03-27T19:29:59.560Z,60.63
2019-03-27T19:32:26.272Z,56.80
2019-03-27T19:34:52.998Z,57.83
2019-03-27T19:37:19.753Z,60.55
2019-03-27T19:39:46.517Z,55.80
2019-03-27T19:42:13.236Z,56.55
2019-03-27T19:44:40.155Z,58.45
2019-03-27T19:47:06.998Z,54.05
2019-03-27T19:49:33.694Z,55.70
2019-03-27T19:52:00.656Z,61.25
2019-03-27T19:54:27.737Z,59.55
2019-03-27T19:56:54.630Z,57.03
2019-03-27T19:59:21.403Z,59.08
2019-03-27T20:01:48.189Z,57.80
2019-03-27T20:04:14.932Z,59.60
2019-03-27T20:06:41.763Z,61.00
2019-03-27T20:09:08.658Z,64.60
2019-03-27T20:11:35.479Z,63.65
2019-03-27T20:14:02.391Z,64.67
2019-03-27T20:16:29.363Z,64.22
2019-03-27T20:18:56.245Z,70.32
2019-03-27T20:21:23.062Z,73.75
2019-03-27T20:23:49.801Z,77.03
2019-03-27T20:26:16.933Z,69.75
2019-03-27T20:28:43.671Z,75.12
2019-03-27T20:31:10.614Z,69.55
2019-03-27T20:33:38.309Z,67.55
2019-03-27T20:36:05.280Z,75.12
2019-03-27T20:38:32.014Z,75.57
2019-03-27T20:40:58.763Z,67.85
2019-03-27T20:43:25.484Z,69.67
2019-03-27T20:45:52.198Z,66.20
2019-03-27T20:48:21.320Z,68.92
2019-03-27T20:50:48.047Z,64.22
2019-03-27T20:53:14.803Z,71.65
2019-03-27T20:55:41.624Z,66.20
2019-03-27T20:58:08.420Z,66.85
2019-03-27T21:00:35.320Z,68.75
2019-03-27T21:03:02.468Z,65.75
2019-03-27T21:05:29.302Z,68.50
2019-03-27T21:07:56.106Z,67.42
2019-03-27T21:10:23.130Z,64.00
2019-03-27T21:12:50.032Z,66.67
2019-03-27T21:15:16.919Z,63.20
2019-03-27T21:17:43.907Z,64.27
2019-03-27T21:20:10.768Z,71.40
2019-03-27T21:22:37.626Z,63.33
2019-03-27T21:25:09.020Z,67.62
2019-03-27T21:30:02.269Z,65.52
2019-03-27T21:32:29.018Z,72.65
2019-03-27T21:34:55.832Z,69.82
2019-03-27T21:37:22.681Z,62.67
2019-03-27T21:39:49.447Z,65.47
2019-03-27T21:42:16.274Z,65.85
2019-03-27T21:44:43.166Z,66.82
2019-03-27T21:47:09.892Z,70.30
2019-03-27T21:49:36.805Z,71.85
2019-03-27T21:52:03.560Z,70.12
2019-03-27T21:54:30.295Z,75.50
2019-03-27T21:56:57.189Z,76.02
2019-03-27T21:59:23.931Z,83.27
2019-03-27T22:01:50.666Z,80.83
2019-03-27T22:04:17.490Z,76.12
2019-03-27T22:06:44.205Z,83.17
2019-03-27T22:09:11.082Z,79.82
2019-03-27T22:11:38.270Z,81.95
2019-03-27T22:14:05.082Z,94.55
2019-03-27T22:16:32.038Z,89.20
2019-03-27T22:18:59.195Z,81.30
2019-03-27T22:21:26.223Z,83.85
2019-03-27T22:23:53.018Z,83.90
2019-03-27T22:26:19.829Z,84.62
2019-03-27T22:28:46.586Z,88.70
2019-03-27T22:31:13.380Z,86.37
2019-03-27T22:33:41.385Z,86.85
2019-03-27T22:36:08.447Z,78.37
2019-03-27T22:38:35.229Z,87.97
2019-03-27T22:41:01.995Z,82.62
2019-03-27T22:43:28.913Z,77.40
2019-03-27T22:45:55.698Z,79.47
2019-03-27T22:48:22.483Z,82.17
2019-03-27T22:50:49.261Z,81.32
2019-03-27T22:53:16.207Z,80.17
2019-03-27T22:55:49.507Z,90.85
2019-03-27T22:58:13.143Z,90.55
2019-03-27T23:00:45.045Z,93.47
2019-03-27T23:03:18.364Z,90.92
2019-03-27T23:05:42.120Z,94.42
2019-03-27T23:08:09.557Z,91.67
2019-03-27T23:10:36.851Z,92.40
2019-03-27T23:13:03.774Z,96.17
2019-03-27T23:15:30.559Z,92.10
2019-03-27T23:17:57.384Z,85.17
2019-03-27T23:20:24.233Z,81.95
2019-03-27T23:22:51.080Z,86.08
2019-03-27T23:25:17.901Z,85.65
2019-03-27T23:27:44.704Z,85.03
2019-03-27T23:30:11.598Z,78.72
2019-03-27T23:32:38.470Z,81.57
2019-03-27T23:35:11.414Z,81.80
2019-03-27T23:37:38.181Z,82.62
2019-03-27T23:40:05.502Z,76.65
2019-03-27T23:42:32.508Z,91.17
2019-03-27T23:44:59.284Z,81.90
2019-03-27T23:47:26.070Z,82.33
2019-03-27T23:49:52.891Z,80.28
2019-03-27T23:52:19.901Z,85.28
2019-03-27T23:54:46.714Z,83.50
2019-03-27T23:57:13.654Z,87.33
2019-03-27T23:59:40.463Z,82.53
